sensor_id;sensor_type;location;lat;lon;timestamp;P1;durP1;ratioP1;P2;durP2;ratioP2
7047;SDS011;3565;53.254;10.352;2022-10-16T00:00:06;7.50;;;6.70;;
7047;SDS011;3565;53.254;10.352;2022-10-16T00:02:34;9.30;;;6.43;;
7047;SDS011;3565;53.254;10.352;2022-10-16T00:05:04;7.40;;;6.60;;
7047;SDS011;3565;53.254;10.352;2022-10-16T00:07:32;7.97;;;6.57;;
7047;SDS011;3565;53.254;10.352;2022-10-16T00:10:01;7.77;;;6.63;;
7047;SDS011;3565;53.254;10.352;2022-10-16T00:12:29;6.27;;;5.67;;
7047;SDS011;3565;53.254;10.352;2022-10-16T00:14:57;7.40;;;5.50;;
7047;SDS011;3565;53.254;10.352;2022-10-16T00:17:26;7.83;;;6.50;;
7047;SDS011;3565;53.254;10.352;2022-10-16T00:19:54;8.17;;;6.70;;
7047;SDS011;3565;53.254;10.352;2022-10-16T00:22:22;8.53;;;6.33;;
7047;SDS011;3565;53.254;10.352;2022-10-16T00:24:50;8.13;;;6.50;;
7047;SDS011;3565;53.254;10.352;2022-10-16T00:27:22;6.80;;;6.10;;
7047;SDS011;3565;53.254;10.352;2022-10-16T00:29:50;10.27;;;6.80;;
7047;SDS011;3565;53.254;10.352;2022-10-16T00:32:20;8.80;;;7.10;;
7047;SDS011;3565;53.254;10.352;2022-10-16T00:34:49;6.33;;;5.70;;
7047;SDS011;3565;53.254;10.352;2022-10-16T00:37:17;8.03;;;6.80;;
7047;SDS011;3565;53.254;10.352;2022-10-16T00:39:46;8.03;;;6.13;;
7047;SDS011;3565;53.254;10.352;2022-10-16T00:42:15;9.23;;;7.50;;
7047;SDS011;3565;53.254;10.352;2022-10-16T00:44:48;9.47;;;6.80;;
7047;SDS011;3565;53.254;10.352;2022-10-16T00:47:21;8.23;;;6.33;;
7047;SDS011;3565;53.254;10.352;2022-10-16T00:49:55;7.37;;;5.70;;
7047;SDS011;3565;53.254;10.352;2022-10-16T00:52:22;6.43;;;5.30;;
7047;SDS011;3565;53.254;10.352;2022-10-16T00:54:54;6.17;;;5.47;;
7047;SDS011;3565;53.254;10.352;2022-10-16T00:57:24;6.83;;;6.03;;
7047;SDS011;3565;53.254;10.352;2022-10-16T00:59:53;6.47;;;5.77;;
7047;SDS011;3565;53.254;10.352;2022-10-16T01:02:21;6.30;;;5.70;;
7047;SDS011;3565;53.254;10.352;2022-10-16T01:04:50;6.17;;;5.33;;
7047;SDS011;3565;53.254;10.352;2022-10-16T01:07:26;10.07;;;5.70;;
7047;SDS011;3565;53.254;10.352;2022-10-16T01:09:57;5.87;;;5.00;;
7047;SDS011;3565;53.254;10.352;2022-10-16T01:12:33;5.97;;;4.43;;
7047;SDS011;3565;53.254;10.352;2022-10-16T01:15:03;4.93;;;4.43;;
7047;SDS011;3565;53.254;10.352;2022-10-16T01:17:36;5.80;;;4.27;;
7047;SDS011;3565;53.254;10.352;2022-10-16T01:20:10;5.33;;;3.63;;
7047;SDS011;3565;53.254;10.352;2022-10-16T01:22:40;6.30;;;4.60;;
7047;SDS011;3565;53.254;10.352;2022-10-16T01:25:11;4.97;;;3.70;;
7047;SDS011;3565;53.254;10.352;2022-10-16T01:27:42;5.30;;;3.80;;
7047;SDS011;3565;53.254;10.352;2022-10-16T01:30:13;6.67;;;3.77;;
7047;SDS011;3565;53.254;10.352;2022-10-16T01:32:43;4.33;;;3.67;;
7047;SDS011;3565;53.254;10.352;2022-10-16T01:35:13;6.20;;;4.10;;
7047;SDS011;3565;53.254;10.352;2022-10-16T01:37:46;3.93;;;3.53;;
7047;SDS011;3565;53.254;10.352;2022-10-16T01:40:15;3.97;;;3.37;;
7047;SDS011;3565;53.254;10.352;2022-10-16T01:42:44;4.43;;;3.50;;
7047;SDS011;3565;53.254;10.352;2022-10-16T01:45:16;5.97;;;3.20;;
7047;SDS011;3565;53.254;10.352;2022-10-16T01:47:48;5.00;;;3.43;;
7047;SDS011;3565;53.254;10.352;2022-10-16T01:50:20;4.27;;;3.10;;
7047;SDS011;3565;53.254;10.352;2022-10-16T01:52:51;3.90;;;3.10;;
7047;SDS011;3565;53.254;10.352;2022-10-16T01:55:22;5.07;;;3.10;;
7047;SDS011;3565;53.254;10.352;2022-10-16T01:57:51;5.37;;;3.00;;
7047;SDS011;3565;53.254;10.352;2022-10-16T02:00:20;3.73;;;3.10;;
7047;SDS011;3565;53.254;10.352;2022-10-16T02:02:50;3.20;;;2.90;;
7047;SDS011;3565;53.254;10.352;2022-10-16T02:05:20;4.33;;;2.80;;
7047;SDS011;3565;53.254;10.352;2022-10-16T02:07:48;4.83;;;2.87;;
7047;SDS011;3565;53.254;10.352;2022-10-16T02:10:18;6.40;;;2.87;;
7047;SDS011;3565;53.254;10.352;2022-10-16T02:12:48;3.67;;;2.63;;
7047;SDS011;3565;53.254;10.352;2022-10-16T02:15:17;5.00;;;2.30;;
7047;SDS011;3565;53.254;10.352;2022-10-16T02:17:45;3.37;;;2.53;;
7047;SDS011;3565;53.254;10.352;2022-10-16T02:20:14;4.50;;;2.67;;
7047;SDS011;3565;53.254;10.352;2022-10-16T02:22:43;3.60;;;2.40;;
7047;SDS011;3565;53.254;10.352;2022-10-16T02:25:17;3.43;;;2.93;;
7047;SDS011;3565;53.254;10.352;2022-10-16T02:27:50;6.13;;;2.30;;
7047;SDS011;3565;53.254;10.352;2022-10-16T02:30:19;5.40;;;2.40;;
7047;SDS011;3565;53.254;10.352;2022-10-16T02:32:48;2.93;;;2.43;;
7047;SDS011;3565;53.254;10.352;2022-10-16T02:35:17;4.40;;;2.50;;
7047;SDS011;3565;53.254;10.352;2022-10-16T02:37:46;3.50;;;2.30;;
7047;SDS011;3565;53.254;10.352;2022-10-16T02:40:15;3.37;;;2.83;;
7047;SDS011;3565;53.254;10.352;2022-10-16T02:42:49;4.97;;;2.23;;
7047;SDS011;3565;53.254;10.352;2022-10-16T02:45:17;5.70;;;2.60;;
7047;SDS011;3565;53.254;10.352;2022-10-16T02:47:45;3.83;;;2.40;;
7047;SDS011;3565;53.254;10.352;2022-10-16T02:50:14;6.23;;;2.53;;
7047;SDS011;3565;53.254;10.352;2022-10-16T02:52:42;6.97;;;2.60;;
7047;SDS011;3565;53.254;10.352;2022-10-16T02:55:11;6.03;;;2.70;;
7047;SDS011;3565;53.254;10.352;2022-10-16T02:57:39;2.90;;;2.40;;
7047;SDS011;3565;53.254;10.352;2022-10-16T03:00:09;2.73;;;2.53;;
7047;SDS011;3565;53.254;10.352;2022-10-16T03:02:37;6.60;;;2.97;;
7047;SDS011;3565;53.254;10.352;2022-10-16T03:05:06;6.83;;;2.90;;
7047;SDS011;3565;53.254;10.352;2022-10-16T03:07:34;5.07;;;2.67;;
7047;SDS011;3565;53.254;10.352;2022-10-16T03:10:03;2.77;;;2.27;;
7047;SDS011;3565;53.254;10.352;2022-10-16T03:12:31;6.03;;;2.60;;
7047;SDS011;3565;53.254;10.352;2022-10-16T03:15:00;3.87;;;2.50;;
7047;SDS011;3565;53.254;10.352;2022-10-16T03:17:28;4.90;;;3.20;;
7047;SDS011;3565;53.254;10.352;2022-10-16T03:19:56;3.03;;;2.30;;
7047;SDS011;3565;53.254;10.352;2022-10-16T03:22:25;4.33;;;2.50;;
7047;SDS011;3565;53.254;10.352;2022-10-16T03:24:53;4.23;;;2.60;;
7047;SDS011;3565;53.254;10.352;2022-10-16T03:27:21;3.83;;;2.30;;
7047;SDS011;3565;53.254;10.352;2022-10-16T03:29:49;4.77;;;2.50;;
7047;SDS011;3565;53.254;10.352;2022-10-16T03:32:18;5.90;;;2.50;;
7047;SDS011;3565;53.254;10.352;2022-10-16T03:34:47;5.50;;;2.40;;
7047;SDS011;3565;53.254;10.352;2022-10-16T03:37:15;4.10;;;2.37;;
7047;SDS011;3565;53.254;10.352;2022-10-16T03:39:43;5.47;;;2.57;;
7047;SDS011;3565;53.254;10.352;2022-10-16T03:42:11;5.93;;;3.00;;
7047;SDS011;3565;53.254;10.352;2022-10-16T03:44:39;4.63;;;2.20;;
7047;SDS011;3565;53.254;10.352;2022-10-16T03:47:07;5.70;;;2.30;;
7047;SDS011;3565;53.254;10.352;2022-10-16T03:49:37;2.70;;;2.10;;
7047;SDS011;3565;53.254;10.352;2022-10-16T03:52:05;2.77;;;2.10;;
7047;SDS011;3565;53.254;10.352;2022-10-16T03:54:33;4.23;;;2.20;;
7047;SDS011;3565;53.254;10.352;2022-10-16T03:57:02;2.30;;;1.97;;
7047;SDS011;3565;53.254;10.352;2022-10-16T03:59:32;4.30;;;2.07;;
7047;SDS011;3565;53.254;10.352;2022-10-16T04:02:00;2.33;;;2.10;;
7047;SDS011;3565;53.254;10.352;2022-10-16T04:04:28;3.20;;;2.20;;
7047;SDS011;3565;53.254;10.352;2022-10-16T04:06:57;4.40;;;2.73;;
7047;SDS011;3565;53.254;10.352;2022-10-16T04:09:25;3.00;;;2.40;;
7047;SDS011;3565;53.254;10.352;2022-10-16T04:11:53;4.80;;;2.27;;
7047;SDS011;3565;53.254;10.352;2022-10-16T04:14:21;3.67;;;2.43;;
7047;SDS011;3565;53.254;10.352;2022-10-16T04:16:49;2.50;;;2.30;;
7047;SDS011;3565;53.254;10.352;2022-10-16T04:19:19;3.70;;;2.40;;
7047;SDS011;3565;53.254;10.352;2022-10-16T04:21:47;4.17;;;2.50;;
7047;SDS011;3565;53.254;10.352;2022-10-16T04:24:15;4.33;;;2.40;;
7047;SDS011;3565;53.254;10.352;2022-10-16T04:26:43;5.63;;;2.60;;
7047;SDS011;3565;53.254;10.352;2022-10-16T04:29:11;4.40;;;2.20;;
7047;SDS011;3565;53.254;10.352;2022-10-16T04:31:40;3.83;;;2.50;;
7047;SDS011;3565;53.254;10.352;2022-10-16T04:34:07;5.03;;;2.40;;
7047;SDS011;3565;53.254;10.352;2022-10-16T04:36:37;3.93;;;2.50;;
7047;SDS011;3565;53.254;10.352;2022-10-16T04:39:05;4.73;;;2.80;;
7047;SDS011;3565;53.254;10.352;2022-10-16T04:41:34;4.77;;;3.30;;
7047;SDS011;3565;53.254;10.352;2022-10-16T04:44:03;4.00;;;3.10;;
7047;SDS011;3565;53.254;10.352;2022-10-16T04:46:31;4.97;;;2.90;;
7047;SDS011;3565;53.254;10.352;2022-10-16T04:48:59;4.63;;;2.60;;
7047;SDS011;3565;53.254;10.352;2022-10-16T04:51:29;4.63;;;2.47;;
7047;SDS011;3565;53.254;10.352;2022-10-16T04:53:57;5.23;;;2.50;;
7047;SDS011;3565;53.254;10.352;2022-10-16T04:59:02;7.20;;;2.77;;
7047;SDS011;3565;53.254;10.352;2022-10-16T05:01:31;3.70;;;2.50;;
7047;SDS011;3565;53.254;10.352;2022-10-16T05:03:59;3.73;;;2.50;;
7047;SDS011;3565;53.254;10.352;2022-10-16T05:09:05;3.90;;;2.40;;
7047;SDS011;3565;53.254;10.352;2022-10-16T05:11:35;3.27;;;2.70;;
7047;SDS011;3565;53.254;10.352;2022-10-16T05:14:03;6.30;;;2.73;;
7047;SDS011;3565;53.254;10.352;2022-10-16T05:16:32;4.93;;;2.90;;
7047;SDS011;3565;53.254;10.352;2022-10-16T05:19:01;6.93;;;2.97;;
7047;SDS011;3565;53.254;10.352;2022-10-16T05:21:30;6.00;;;2.70;;
7047;SDS011;3565;53.254;10.352;2022-10-16T05:23:59;7.73;;;2.70;;
7047;SDS011;3565;53.254;10.352;2022-10-16T05:26:27;4.13;;;2.50;;
7047;SDS011;3565;53.254;10.352;2022-10-16T05:28:56;4.93;;;2.80;;
7047;SDS011;3565;53.254;10.352;2022-10-16T05:31:25;10.07;;;3.10;;
7047;SDS011;3565;53.254;10.352;2022-10-16T05:33:58;6.67;;;2.80;;
7047;SDS011;3565;53.254;10.352;2022-10-16T05:36:27;4.00;;;3.07;;
7047;SDS011;3565;53.254;10.352;2022-10-16T05:38:56;4.60;;;2.60;;
7047;SDS011;3565;53.254;10.352;2022-10-16T05:41:24;3.90;;;2.43;;
7047;SDS011;3565;53.254;10.352;2022-10-16T05:43:53;4.63;;;2.60;;
7047;SDS011;3565;53.254;10.352;2022-10-16T05:46:22;6.40;;;3.03;;
7047;SDS011;3565;53.254;10.352;2022-10-16T05:48:51;7.70;;;3.03;;
7047;SDS011;3565;53.254;10.352;2022-10-16T05:51:20;6.57;;;2.70;;
7047;SDS011;3565;53.254;10.352;2022-10-16T05:53:49;4.93;;;2.63;;
7047;SDS011;3565;53.254;10.352;2022-10-16T05:56:19;4.87;;;2.83;;
7047;SDS011;3565;53.254;10.352;2022-10-16T05:58:47;4.97;;;2.87;;
7047;SDS011;3565;53.254;10.352;2022-10-16T06:01:17;5.00;;;3.00;;
7047;SDS011;3565;53.254;10.352;2022-10-16T06:03:49;4.70;;;2.70;;
7047;SDS011;3565;53.254;10.352;2022-10-16T06:06:18;4.73;;;2.60;;
7047;SDS011;3565;53.254;10.352;2022-10-16T06:08:48;3.53;;;2.60;;
7047;SDS011;3565;53.254;10.352;2022-10-16T06:11:18;5.23;;;2.60;;
7047;SDS011;3565;53.254;10.352;2022-10-16T06:13:49;5.10;;;3.00;;
7047;SDS011;3565;53.254;10.352;2022-10-16T06:16:18;6.20;;;2.90;;
7047;SDS011;3565;53.254;10.352;2022-10-16T06:18:47;3.97;;;2.80;;
7047;SDS011;3565;53.254;10.352;2022-10-16T06:21:18;3.13;;;2.73;;
7047;SDS011;3565;53.254;10.352;2022-10-16T06:23:50;4.97;;;2.80;;
7047;SDS011;3565;53.254;10.352;2022-10-16T06:26:21;4.60;;;2.87;;
7047;SDS011;3565;53.254;10.352;2022-10-16T06:28:51;4.90;;;2.77;;
7047;SDS011;3565;53.254;10.352;2022-10-16T06:31:21;5.47;;;2.83;;
7047;SDS011;3565;53.254;10.352;2022-10-16T06:33:51;6.27;;;2.80;;
7047;SDS011;3565;53.254;10.352;2022-10-16T06:36:21;5.80;;;3.00;;
7047;SDS011;3565;53.254;10.352;2022-10-16T06:38:51;3.80;;;2.67;;
7047;SDS011;3565;53.254;10.352;2022-10-16T06:41:20;7.37;;;2.90;;
7047;SDS011;3565;53.254;10.352;2022-10-16T06:43:50;5.57;;;3.10;;
7047;SDS011;3565;53.254;10.352;2022-10-16T06:46:20;2.87;;;2.60;;
7047;SDS011;3565;53.254;10.352;2022-10-16T06:48:48;3.63;;;2.60;;
7047;SDS011;3565;53.254;10.352;2022-10-16T06:51:17;5.43;;;2.90;;
7047;SDS011;3565;53.254;10.352;2022-10-16T06:53:48;5.93;;;3.10;;
7047;SDS011;3565;53.254;10.352;2022-10-16T06:56:19;4.87;;;2.63;;
7047;SDS011;3565;53.254;10.352;2022-10-16T06:58:47;4.63;;;3.00;;
7047;SDS011;3565;53.254;10.352;2022-10-16T07:01:16;5.20;;;3.13;;
7047;SDS011;3565;53.254;10.352;2022-10-16T07:03:47;5.23;;;2.97;;
7047;SDS011;3565;53.254;10.352;2022-10-16T07:06:17;3.97;;;2.90;;
7047;SDS011;3565;53.254;10.352;2022-10-16T07:08:45;9.70;;;3.43;;
7047;SDS011;3565;53.254;10.352;2022-10-16T07:11:16;4.50;;;2.90;;
7047;SDS011;3565;53.254;10.352;2022-10-16T07:13:46;4.57;;;3.20;;
7047;SDS011;3565;53.254;10.352;2022-10-16T07:16:17;4.53;;;2.70;;
7047;SDS011;3565;53.254;10.352;2022-10-16T07:18:44;5.57;;;3.17;;
7047;SDS011;3565;53.254;10.352;2022-10-16T07:21:16;4.17;;;2.93;;
7047;SDS011;3565;53.254;10.352;2022-10-16T07:23:50;6.77;;;3.30;;
7047;SDS011;3565;53.254;10.352;2022-10-16T07:26:19;6.10;;;3.03;;
7047;SDS011;3565;53.254;10.352;2022-10-16T07:28:48;8.10;;;3.07;;
7047;SDS011;3565;53.254;10.352;2022-10-16T07:31:18;6.20;;;2.97;;
7047;SDS011;3565;53.254;10.352;2022-10-16T07:33:48;5.17;;;2.80;;
7047;SDS011;3565;53.254;10.352;2022-10-16T07:36:18;5.20;;;3.03;;
7047;SDS011;3565;53.254;10.352;2022-10-16T07:38:48;3.30;;;2.70;;
7047;SDS011;3565;53.254;10.352;2022-10-16T07:41:18;5.60;;;3.00;;
7047;SDS011;3565;53.254;10.352;2022-10-16T07:43:47;5.17;;;2.93;;
7047;SDS011;3565;53.254;10.352;2022-10-16T07:46:17;6.50;;;2.70;;
7047;SDS011;3565;53.254;10.352;2022-10-16T07:48:47;4.97;;;2.40;;
7047;SDS011;3565;53.254;10.352;2022-10-16T07:51:17;3.37;;;2.60;;
7047;SDS011;3565;53.254;10.352;2022-10-16T07:53:47;4.73;;;2.73;;
7047;SDS011;3565;53.254;10.352;2022-10-16T07:56:17;4.80;;;2.73;;
7047;SDS011;3565;53.254;10.352;2022-10-16T07:58:47;4.80;;;2.60;;
7047;SDS011;3565;53.254;10.352;2022-10-16T08:01:16;4.77;;;2.50;;
7047;SDS011;3565;53.254;10.352;2022-10-16T08:03:46;3.03;;;2.20;;
7047;SDS011;3565;53.254;10.352;2022-10-16T08:06:16;5.27;;;2.20;;
7047;SDS011;3565;53.254;10.352;2022-10-16T08:08:45;3.23;;;2.30;;
7047;SDS011;3565;53.254;10.352;2022-10-16T08:11:14;3.07;;;2.20;;
7047;SDS011;3565;53.254;10.352;2022-10-16T08:13:43;4.77;;;2.80;;
7047;SDS011;3565;53.254;10.352;2022-10-16T08:16:12;4.60;;;2.07;;
7047;SDS011;3565;53.254;10.352;2022-10-16T08:18:41;2.63;;;2.17;;
7047;SDS011;3565;53.254;10.352;2022-10-16T08:21:12;2.47;;;2.27;;
7047;SDS011;3565;53.254;10.352;2022-10-16T08:23:41;3.90;;;2.57;;
7047;SDS011;3565;53.254;10.352;2022-10-16T08:26:11;4.10;;;2.20;;
7047;SDS011;3565;53.254;10.352;2022-10-16T08:28:40;2.80;;;2.10;;
7047;SDS011;3565;53.254;10.352;2022-10-16T08:31:09;4.20;;;2.20;;
7047;SDS011;3565;53.254;10.352;2022-10-16T08:33:41;2.43;;;2.07;;
7047;SDS011;3565;53.254;10.352;2022-10-16T08:36:13;4.13;;;2.30;;
7047;SDS011;3565;53.254;10.352;2022-10-16T08:38:43;2.97;;;2.07;;
7047;SDS011;3565;53.254;10.352;2022-10-16T08:41:29;3.87;;;2.20;;
7047;SDS011;3565;53.254;10.352;2022-10-16T08:44:19;3.20;;;2.20;;
7047;SDS011;3565;53.254;10.352;2022-10-16T08:47:02;2.73;;;2.07;;
7047;SDS011;3565;53.254;10.352;2022-10-16T08:49:34;2.70;;;2.23;;
7047;SDS011;3565;53.254;10.352;2022-10-16T08:52:04;3.57;;;2.10;;
7047;SDS011;3565;53.254;10.352;2022-10-16T08:54:37;2.57;;;2.10;;
7047;SDS011;3565;53.254;10.352;2022-10-16T08:57:09;2.63;;;2.20;;
7047;SDS011;3565;53.254;10.352;2022-10-16T08:59:41;3.50;;;2.20;;
7047;SDS011;3565;53.254;10.352;2022-10-16T09:02:18;2.33;;;2.07;;
7047;SDS011;3565;53.254;10.352;2022-10-16T09:04:54;2.70;;;2.10;;
7047;SDS011;3565;53.254;10.352;2022-10-16T09:07:30;4.63;;;2.03;;
7047;SDS011;3565;53.254;10.352;2022-10-16T09:10:05;2.90;;;2.13;;
7047;SDS011;3565;53.254;10.352;2022-10-16T09:12:43;2.30;;;1.73;;
7047;SDS011;3565;53.254;10.352;2022-10-16T09:15:16;2.83;;;2.10;;
7047;SDS011;3565;53.254;10.352;2022-10-16T09:17:49;2.93;;;1.70;;
7047;SDS011;3565;53.254;10.352;2022-10-16T09:20:30;3.33;;;1.83;;
7047;SDS011;3565;53.254;10.352;2022-10-16T09:23:12;4.37;;;1.90;;
7047;SDS011;3565;53.254;10.352;2022-10-16T09:25:43;3.07;;;1.90;;
7047;SDS011;3565;53.254;10.352;2022-10-16T09:28:14;3.17;;;1.60;;
7047;SDS011;3565;53.254;10.352;2022-10-16T09:30:44;2.70;;;1.63;;
7047;SDS011;3565;53.254;10.352;2022-10-16T09:33:16;2.97;;;1.70;;
7047;SDS011;3565;53.254;10.352;2022-10-16T09:35:47;1.70;;;1.60;;
7047;SDS011;3565;53.254;10.352;2022-10-16T09:38:23;3.90;;;1.50;;
7047;SDS011;3565;53.254;10.352;2022-10-16T09:40:54;4.23;;;1.80;;
7047;SDS011;3565;53.254;10.352;2022-10-16T09:43:25;3.53;;;1.43;;
7047;SDS011;3565;53.254;10.352;2022-10-16T09:45:58;3.40;;;1.60;;
7047;SDS011;3565;53.254;10.352;2022-10-16T09:48:33;1.60;;;1.50;;
7047;SDS011;3565;53.254;10.352;2022-10-16T09:51:01;3.27;;;1.40;;
7047;SDS011;3565;53.254;10.352;2022-10-16T09:53:39;2.60;;;1.60;;
7047;SDS011;3565;53.254;10.352;2022-10-16T09:56:10;3.47;;;1.50;;
7047;SDS011;3565;53.254;10.352;2022-10-16T09:58:49;1.77;;;1.57;;
7047;SDS011;3565;53.254;10.352;2022-10-16T10:01:18;3.87;;;1.37;;
7047;SDS011;3565;53.254;10.352;2022-10-16T10:03:48;4.33;;;1.60;;
7047;SDS011;3565;53.254;10.352;2022-10-16T10:06:21;3.67;;;1.50;;
7047;SDS011;3565;53.254;10.352;2022-10-16T10:08:58;2.20;;;1.40;;
7047;SDS011;3565;53.254;10.352;2022-10-16T10:11:37;2.73;;;2.33;;
7047;SDS011;3565;53.254;10.352;2022-10-16T10:14:23;5.57;;;1.50;;
7047;SDS011;3565;53.254;10.352;2022-10-16T10:17:07;3.50;;;1.23;;
7047;SDS011;3565;53.254;10.352;2022-10-16T10:19:46;3.83;;;1.47;;
7047;SDS011;3565;53.254;10.352;2022-10-16T10:22:24;2.00;;;1.20;;
7047;SDS011;3565;53.254;10.352;2022-10-16T10:25:00;3.43;;;1.33;;
7047;SDS011;3565;53.254;10.352;2022-10-16T10:27:58;3.80;;;1.27;;
7047;SDS011;3565;53.254;10.352;2022-10-16T10:30:41;5.27;;;1.40;;
7047;SDS011;3565;53.254;10.352;2022-10-16T10:33:20;1.73;;;1.20;;
7047;SDS011;3565;53.254;10.352;2022-10-16T10:35:56;3.63;;;1.30;;
7047;SDS011;3565;53.254;10.352;2022-10-16T10:38:30;1.67;;;1.13;;
7047;SDS011;3565;53.254;10.352;2022-10-16T10:41:08;2.13;;;1.50;;
7047;SDS011;3565;53.254;10.352;2022-10-16T10:43:43;4.43;;;1.17;;
7047;SDS011;3565;53.254;10.352;2022-10-16T10:46:18;2.73;;;1.47;;
7047;SDS011;3565;53.254;10.352;2022-10-16T10:48:53;2.83;;;1.37;;
7047;SDS011;3565;53.254;10.352;2022-10-16T10:51:30;4.47;;;1.27;;
7047;SDS011;3565;53.254;10.352;2022-10-16T10:54:05;2.37;;;1.20;;
7047;SDS011;3565;53.254;10.352;2022-10-16T10:56:44;2.90;;;1.30;;
7047;SDS011;3565;53.254;10.352;2022-10-16T10:59:27;1.50;;;1.20;;
7047;SDS011;3565;53.254;10.352;2022-10-16T11:02:01;3.20;;;1.33;;
7047;SDS011;3565;53.254;10.352;2022-10-16T11:04:39;3.43;;;1.10;;
7047;SDS011;3565;53.254;10.352;2022-10-16T11:07:28;2.53;;;1.00;;
7047;SDS011;3565;53.254;10.352;2022-10-16T11:10:02;2.17;;;1.20;;
7047;SDS011;3565;53.254;10.352;2022-10-16T11:12:33;2.13;;;1.10;;
7047;SDS011;3565;53.254;10.352;2022-10-16T11:15:04;2.33;;;1.00;;
7047;SDS011;3565;53.254;10.352;2022-10-16T11:17:38;1.57;;;1.00;;
7047;SDS011;3565;53.254;10.352;2022-10-16T11:20:13;4.30;;;1.27;;
7047;SDS011;3565;53.254;10.352;2022-10-16T11:22:44;3.03;;;1.67;;
7047;SDS011;3565;53.254;10.352;2022-10-16T11:25:18;4.00;;;1.40;;
7047;SDS011;3565;53.254;10.352;2022-10-16T11:27:49;1.87;;;1.37;;
7047;SDS011;3565;53.254;10.352;2022-10-16T11:30:20;3.70;;;1.30;;
7047;SDS011;3565;53.254;10.352;2022-10-16T11:32:54;2.73;;;1.20;;
7047;SDS011;3565;53.254;10.352;2022-10-16T11:35:33;1.43;;;1.00;;
7047;SDS011;3565;53.254;10.352;2022-10-16T11:38:09;1.73;;;1.20;;
7047;SDS011;3565;53.254;10.352;2022-10-16T11:40:40;4.40;;;1.20;;
7047;SDS011;3565;53.254;10.352;2022-10-16T11:43:14;2.80;;;1.50;;
7047;SDS011;3565;53.254;10.352;2022-10-16T11:45:46;1.80;;;1.10;;
7047;SDS011;3565;53.254;10.352;2022-10-16T11:48:20;4.03;;;1.30;;
7047;SDS011;3565;53.254;10.352;2022-10-16T11:50:53;1.87;;;1.40;;
7047;SDS011;3565;53.254;10.352;2022-10-16T11:53:28;4.63;;;1.30;;
7047;SDS011;3565;53.254;10.352;2022-10-16T11:56:15;1.67;;;1.20;;
7047;SDS011;3565;53.254;10.352;2022-10-16T11:58:50;2.17;;;1.30;;
7047;SDS011;3565;53.254;10.352;2022-10-16T12:01:24;3.17;;;1.30;;
7047;SDS011;3565;53.254;10.352;2022-10-16T12:03:59;1.90;;;1.10;;
7047;SDS011;3565;53.254;10.352;2022-10-16T12:06:36;2.07;;;1.20;;
7047;SDS011;3565;53.254;10.352;2022-10-16T12:09:09;4.97;;;1.50;;
7047;SDS011;3565;53.254;10.352;2022-10-16T12:11:43;1.80;;;1.70;;
7047;SDS011;3565;53.254;10.352;2022-10-16T12:14:20;3.87;;;1.50;;
7047;SDS011;3565;53.254;10.352;2022-10-16T12:17:03;4.20;;;1.40;;
7047;SDS011;3565;53.254;10.352;2022-10-16T12:19:34;4.60;;;1.40;;
7047;SDS011;3565;53.254;10.352;2022-10-16T12:22:02;2.10;;;1.37;;
7047;SDS011;3565;53.254;10.352;2022-10-16T12:24:34;3.40;;;1.30;;
7047;SDS011;3565;53.254;10.352;2022-10-16T12:27:05;3.63;;;1.53;;
7047;SDS011;3565;53.254;10.352;2022-10-16T12:29:34;3.47;;;1.23;;
7047;SDS011;3565;53.254;10.352;2022-10-16T12:32:18;1.93;;;1.43;;
7047;SDS011;3565;53.254;10.352;2022-10-16T12:34:47;4.13;;;1.60;;
7047;SDS011;3565;53.254;10.352;2022-10-16T12:37:20;4.87;;;1.50;;
7047;SDS011;3565;53.254;10.352;2022-10-16T12:39:51;2.00;;;1.50;;
7047;SDS011;3565;53.254;10.352;2022-10-16T12:42:22;2.30;;;1.60;;
7047;SDS011;3565;53.254;10.352;2022-10-16T12:44:53;2.70;;;1.50;;
7047;SDS011;3565;53.254;10.352;2022-10-16T12:47:23;5.13;;;1.53;;
7047;SDS011;3565;53.254;10.352;2022-10-16T12:49:58;2.77;;;1.30;;
7047;SDS011;3565;53.254;10.352;2022-10-16T12:52:28;3.10;;;1.30;;
7047;SDS011;3565;53.254;10.352;2022-10-16T12:55:05;4.63;;;1.60;;
7047;SDS011;3565;53.254;10.352;2022-10-16T12:57:43;2.90;;;1.40;;
7047;SDS011;3565;53.254;10.352;2022-10-16T13:00:16;3.13;;;1.40;;
7047;SDS011;3565;53.254;10.352;2022-10-16T13:02:51;3.20;;;1.40;;
7047;SDS011;3565;53.254;10.352;2022-10-16T13:05:42;4.57;;;1.60;;
7047;SDS011;3565;53.254;10.352;2022-10-16T13:08:25;2.70;;;1.40;;
7047;SDS011;3565;53.254;10.352;2022-10-16T13:11:00;2.73;;;1.33;;
7047;SDS011;3565;53.254;10.352;2022-10-16T13:13:36;3.00;;;1.60;;
7047;SDS011;3565;53.254;10.352;2022-10-16T13:16:18;3.43;;;1.47;;
7047;SDS011;3565;53.254;10.352;2022-10-16T13:18:52;3.20;;;1.37;;
7047;SDS011;3565;53.254;10.352;2022-10-16T13:21:36;3.00;;;1.40;;
7047;SDS011;3565;53.254;10.352;2022-10-16T13:24:11;2.97;;;1.50;;
7047;SDS011;3565;53.254;10.352;2022-10-16T13:26:46;1.77;;;1.30;;
7047;SDS011;3565;53.254;10.352;2022-10-16T13:29:18;3.97;;;1.50;;
7047;SDS011;3565;53.254;10.352;2022-10-16T13:31:47;4.27;;;1.37;;
7047;SDS011;3565;53.254;10.352;2022-10-16T13:34:17;2.70;;;1.30;;
7047;SDS011;3565;53.254;10.352;2022-10-16T13:36:48;5.67;;;2.07;;
7047;SDS011;3565;53.254;10.352;2022-10-16T13:39:21;2.00;;;1.30;;
7047;SDS011;3565;53.254;10.352;2022-10-16T13:42:00;2.37;;;1.40;;
7047;SDS011;3565;53.254;10.352;2022-10-16T13:44:39;3.30;;;1.40;;
7047;SDS011;3565;53.254;10.352;2022-10-16T13:47:10;2.40;;;1.30;;
7047;SDS011;3565;53.254;10.352;2022-10-16T13:49:40;2.33;;;1.30;;
7047;SDS011;3565;53.254;10.352;2022-10-16T13:52:16;3.00;;;1.53;;
7047;SDS011;3565;53.254;10.352;2022-10-16T13:54:47;5.70;;;1.40;;
7047;SDS011;3565;53.254;10.352;2022-10-16T13:57:16;2.60;;;1.20;;
7047;SDS011;3565;53.254;10.352;2022-10-16T13:59:45;3.13;;;1.20;;
7047;SDS011;3565;53.254;10.352;2022-10-16T14:02:17;6.53;;;1.70;;
7047;SDS011;3565;53.254;10.352;2022-10-16T14:04:48;5.20;;;1.70;;
7047;SDS011;3565;53.254;10.352;2022-10-16T14:07:20;4.40;;;1.40;;
7047;SDS011;3565;53.254;10.352;2022-10-16T14:09:48;6.17;;;1.47;;
7047;SDS011;3565;53.254;10.352;2022-10-16T14:12:19;3.60;;;1.47;;
7047;SDS011;3565;53.254;10.352;2022-10-16T14:14:49;4.70;;;1.50;;
7047;SDS011;3565;53.254;10.352;2022-10-16T14:17:21;3.40;;;1.40;;
7047;SDS011;3565;53.254;10.352;2022-10-16T14:19:51;1.63;;;1.37;;
7047;SDS011;3565;53.254;10.352;2022-10-16T14:22:24;5.37;;;1.73;;
7047;SDS011;3565;53.254;10.352;2022-10-16T14:24:57;2.83;;;1.37;;
7047;SDS011;3565;53.254;10.352;2022-10-16T14:27:28;3.43;;;1.37;;
7047;SDS011;3565;53.254;10.352;2022-10-16T14:30:15;3.60;;;1.50;;
7047;SDS011;3565;53.254;10.352;2022-10-16T14:32:53;3.37;;;1.60;;
7047;SDS011;3565;53.254;10.352;2022-10-16T14:35:23;2.67;;;1.60;;
7047;SDS011;3565;53.254;10.352;2022-10-16T14:37:54;5.90;;;1.43;;
7047;SDS011;3565;53.254;10.352;2022-10-16T14:40:25;5.80;;;1.40;;
7047;SDS011;3565;53.254;10.352;2022-10-16T14:42:56;3.43;;;1.70;;
7047;SDS011;3565;53.254;10.352;2022-10-16T14:45:27;5.03;;;1.60;;
7047;SDS011;3565;53.254;10.352;2022-10-16T14:47:58;3.73;;;1.40;;
7047;SDS011;3565;53.254;10.352;2022-10-16T14:50:29;3.97;;;1.43;;
7047;SDS011;3565;53.254;10.352;2022-10-16T14:52:58;2.23;;;1.20;;
7047;SDS011;3565;53.254;10.352;2022-10-16T14:55:27;4.20;;;1.53;;
7047;SDS011;3565;53.254;10.352;2022-10-16T14:57:55;3.07;;;1.40;;
7047;SDS011;3565;53.254;10.352;2022-10-16T15:00:24;4.10;;;1.40;;
7047;SDS011;3565;53.254;10.352;2022-10-16T15:02:52;3.67;;;1.20;;
7047;SDS011;3565;53.254;10.352;2022-10-16T15:05:22;4.70;;;1.70;;
7047;SDS011;3565;53.254;10.352;2022-10-16T15:07:52;3.33;;;1.40;;
7047;SDS011;3565;53.254;10.352;2022-10-16T15:10:22;6.07;;;1.63;;
7047;SDS011;3565;53.254;10.352;2022-10-16T15:12:53;3.33;;;1.50;;
7047;SDS011;3565;53.254;10.352;2022-10-16T15:15:24;3.27;;;1.33;;
7047;SDS011;3565;53.254;10.352;2022-10-16T15:18:00;3.00;;;1.40;;
7047;SDS011;3565;53.254;10.352;2022-10-16T15:20:31;5.27;;;1.30;;
7047;SDS011;3565;53.254;10.352;2022-10-16T15:23:00;3.30;;;1.47;;
7047;SDS011;3565;53.254;10.352;2022-10-16T15:25:31;4.53;;;1.80;;
7047;SDS011;3565;53.254;10.352;2022-10-16T15:28:05;3.57;;;1.83;;
7047;SDS011;3565;53.254;10.352;2022-10-16T15:30:35;3.73;;;1.50;;